EGFF/CWL METAR and TAF weather

Enter ICAO airport designator
Station Type Date Time Source
EGFF METAR 2022/11/30 17:20 UTC NOAA

EGFF 301720Z AUTO 07007KT 6000 BKN006 OVC010 06/06 Q1026


Station Type Date Time Source
EGFF Decoded METAR 2022/11/30 17:20 UTC NOAA

Cardiff-Wales Airport, United Kingdom (EGFF) 51-24N 003-21W 0M
Nov 30, 2022 - 12:20 PM EST / 2022.11.30 1720 UTC
Wind: from the ENE (070 degrees) at 8 MPH (7 KT):0
Visibility: 3 mile(s):0
Sky conditions: overcast
Temperature: 42 F (6 C)
Dew Point: 42 F (6 C)
Relative Humidity: 100%
Pressure (altimeter): 30.30 in. Hg (1026 hPa)
ob: EGFF 301720Z AUTO 07007KT 6000 BKN006 OVC010 06/06 Q1026
cycle: 17

Station Type Date Time Source
EGFF TAF 2022/11/30 18:12 UTC NOAA

TAF TAF EGFF 301707Z 3018/0118 08007KT 7000 BKN004
BECMG 3018/3021 FEW008
BECMG 3021/3024 3000 BR PROB40 0100/0112 0300 FG VV///
BECMG 0112/0114 6000 NSW
BECMG 0116/0118 3000 BR BKN004

Example: see airport list